This is the latest recevied weather packets stored in our database for station/object WC4PEM-10. If no packets are shown the sender has not sent any weather packets the latest 1 day(s).
| Time | Temp. | Humidity | Pressure | Rain* | Wind** | Luminosity | Snow |
|---|---|---|---|---|---|---|---|
| 1777977089 | 17.22° C | 97% | 1014.4 hPa | 0 mm | 0.45 m/s, 72° | - | - |
| 1777976789 | 17.22° C | 96% | 1014.4 hPa | 0 mm | 0.89 m/s, 93° | - | - |
| 1777976755 | 17.22° C | 96% | 1014.3 hPa | 0 mm | 0.89 m/s, 51° | - | - |
| 1777976489 | 17.22° C | 96% | 1014.3 hPa | 0 mm | 0.89 m/s, 51° | - | - |
| 1777976311 | 17.22° C | 96% | 1014.4 hPa | 0 mm | 1.34 m/s, 57° | - | - |
| 1777976189 | 17.22° C | 96% | 1014.5 hPa | 0 mm | 0.89 m/s, 9° | - | - |
| 1777975889 | 17.22° C | 96% | 1014.4 hPa | 0 mm | 1.34 m/s, 57° | - | - |
| 1777975729 | 17.22° C | 96% | 1014.3 hPa | 0 mm | 1.34 m/s, 38° | - | - |
| 1777975589 | 17.22° C | 96% | 1014.3 hPa | 0 mm | 1.34 m/s, 38° | - | - |
| 1777975413 | 17.22° C | 96% | 1014.2 hPa | 0 mm | 1.34 m/s, 46° | - | - |
| 1777975289 | 17.22° C | 97% | 1014.3 hPa | 0 mm | 1.34 m/s, 57° | - | - |
| 1777974989 | 17.22° C | 96% | 1014.2 hPa | 0 mm | 1.34 m/s, 46° | - | - |
| 1777974905 | 16.67° C | 96% | 1014.2 hPa | 0 mm | 1.34 m/s, 65° | - | - |
| 1777974689 | 16.67° C | 96% | 1014.2 hPa | 0 mm | 1.34 m/s, 65° | - | - |
| 1777974389 | 16.67° C | 96% | 1014.1 hPa | 0 mm | 1.34 m/s, 41° | - | - |
| 1777974089 | 16.67° C | 96% | 1014 hPa | 0 mm | 1.79 m/s, 67° | - | - |
| 1777973789 | 16.67° C | 96% | 1014 hPa | 0 mm | 1.34 m/s, 48° | - | - |
| 1777973705 | 16.67° C | 96% | 1013.9 hPa | 0 mm | 1.34 m/s, 85° | - | - |
| 1777973489 | 16.67° C | 96% | 1013.9 hPa | 0 mm | 1.34 m/s, 31° | - | - |
| 1777973189 | 16.67° C | 96% | 1013.9 hPa | 0 mm | 1.34 m/s, 85° | - | - |
| 1777972920 | 16.67° C | 95% | 1014 hPa | 0 mm | 1.34 m/s, 54° | - | - |
| 1777972889 | 16.67° C | 96% | 1013.9 hPa | 0 mm | 1.34 m/s, 47° | - | - |
| 1777972589 | 16.67° C | 95% | 1014 hPa | 0 mm | 1.34 m/s, 54° | - | - |
| 1777972510 | 16.67° C | 95% | 1014 hPa | 0 mm | 1.34 m/s, 51° | - | - |
| 1777972289 | 16.67° C | 95% | 1014 hPa | 0 mm | 1.34 m/s, 51° | - | - |
* Rain latest hour (hover to see other rain measurements)
** Current wind speed in m/s (hover to see current wind gust speed)